sensor_id;sensor_type;location;lat;lon;timestamp;pressure;altitude;pressure_sealevel;temperature;humidity
11011;BME280;5558;42.702;23.178;2023-06-04T00:00:34;93869.72;;;16.19;100.00
11011;BME280;5558;42.702;23.178;2023-06-04T00:03:01;93858.53;;;16.17;100.00
11011;BME280;5558;42.702;23.178;2023-06-04T00:05:28;93869.88;;;16.09;100.00
11011;BME280;5558;42.702;23.178;2023-06-04T00:07:54;93861.88;;;16.09;100.00
11011;BME280;5558;42.702;23.178;2023-06-04T00:10:21;93860.94;;;16.00;100.00
11011;BME280;5558;42.702;23.178;2023-06-04T00:12:49;93858.88;;;15.97;100.00
11011;BME280;5558;42.702;23.178;2023-06-04T00:15:16;93859.09;;;16.01;100.00
11011;BME280;5558;42.702;23.178;2023-06-04T00:17:43;93854.94;;;15.95;100.00
11011;BME280;5558;42.702;23.178;2023-06-04T00:20:10;93859.25;;;15.91;100.00
11011;BME280;5558;42.702;23.178;2023-06-04T00:22:37;93828.16;;;15.67;100.00
11011;BME280;5558;42.702;23.178;2023-06-04T00:25:07;93855.00;;;15.90;100.00
11011;BME280;5558;42.702;23.178;2023-06-04T00:27:34;93851.47;;;15.94;100.00
11011;BME280;5558;42.702;23.178;2023-06-04T00:30:03;93819.25;;;15.72;100.00
11011;BME280;5558;42.702;23.178;2023-06-04T00:32:30;93846.72;;;15.91;100.00
11011;BME280;5558;42.702;23.178;2023-06-04T00:34:56;93839.75;;;15.90;100.00
11011;BME280;5558;42.702;23.178;2023-06-04T00:37:23;93842.44;;;15.90;100.00
11011;BME280;5558;42.702;23.178;2023-06-04T00:39:51;93845.47;;;15.83;100.00
11011;BME280;5558;42.702;23.178;2023-06-04T00:42:17;93850.91;;;15.78;100.00
11011;BME280;5558;42.702;23.178;2023-06-04T00:44:45;93853.88;;;15.77;100.00
11011;BME280;5558;42.702;23.178;2023-06-04T00:47:15;93849.72;;;15.71;100.00
11011;BME280;5558;42.702;23.178;2023-06-04T00:49:42;93836.22;;;15.62;100.00
11011;BME280;5558;42.702;23.178;2023-06-04T00:52:09;93836.31;;;15.57;100.00
11011;BME280;5558;42.702;23.178;2023-06-04T00:54:36;93832.41;;;15.50;100.00
11011;BME280;5558;42.702;23.178;2023-06-04T00:57:04;93839.81;;;15.34;100.00
11011;BME280;5558;42.702;23.178;2023-06-04T00:59:31;93842.31;;;15.26;100.00
11011;BME280;5558;42.702;23.178;2023-06-04T01:02:01;93837.50;;;15.28;100.00
11011;BME280;5558;42.702;23.178;2023-06-04T01:04:34;93835.13;;;15.26;100.00
11011;BME280;5558;42.702;23.178;2023-06-04T01:07:04;93841.56;;;15.25;100.00
11011;BME280;5558;42.702;23.178;2023-06-04T01:09:31;93845.88;;;15.21;100.00
11011;BME280;5558;42.702;23.178;2023-06-04T01:11:58;93842.41;;;15.21;100.00
11011;BME280;5558;42.702;23.178;2023-06-04T01:14:27;93844.44;;;15.10;100.00
11011;BME280;5558;42.702;23.178;2023-06-04T01:16:57;93853.13;;;15.16;100.00
11011;BME280;5558;42.702;23.178;2023-06-04T01:20:02;93853.56;;;15.23;100.00
11011;BME280;5558;42.702;23.178;2023-06-04T01:22:36;93837.56;;;15.23;100.00
11011;BME280;5558;42.702;23.178;2023-06-04T01:25:05;93835.41;;;15.25;100.00
11011;BME280;5558;42.702;23.178;2023-06-04T01:27:37;93837.28;;;15.24;100.00
11011;BME280;5558;42.702;23.178;2023-06-04T01:30:07;93834.09;;;15.22;100.00
11011;BME280;5558;42.702;23.178;2023-06-04T01:32:35;93840.25;;;15.23;100.00
11011;BME280;5558;42.702;23.178;2023-06-04T01:35:07;93842.31;;;15.26;100.00
11011;BME280;5558;42.702;23.178;2023-06-04T01:37:35;93839.66;;;15.26;100.00
11011;BME280;5558;42.702;23.178;2023-06-04T01:40:02;93843.94;;;15.27;100.00
11011;BME280;5558;42.702;23.178;2023-06-04T01:42:29;93826.53;;;15.11;100.00
11011;BME280;5558;42.702;23.178;2023-06-04T01:44:56;93841.47;;;15.30;100.00
11011;BME280;5558;42.702;23.178;2023-06-04T01:47:23;93859.28;;;15.35;100.00
11011;BME280;5558;42.702;23.178;2023-06-04T01:49:50;93847.22;;;15.37;100.00
11011;BME280;5558;42.702;23.178;2023-06-04T01:52:18;93842.75;;;15.33;100.00
11011;BME280;5558;42.702;23.178;2023-06-04T01:54:46;93860.03;;;15.40;100.00
11011;BME280;5558;42.702;23.178;2023-06-04T01:57:14;93855.75;;;15.39;100.00
11011;BME280;5558;42.702;23.178;2023-06-04T01:59:40;93870.13;;;15.43;100.00
11011;BME280;5558;42.702;23.178;2023-06-04T02:02:07;93826.91;;;15.23;100.00
11011;BME280;5558;42.702;23.178;2023-06-04T02:04:34;93859.66;;;15.47;100.00
11011;BME280;5558;42.702;23.178;2023-06-04T02:07:01;93854.56;;;15.50;100.00
11011;BME280;5558;42.702;23.178;2023-06-04T02:09:29;93858.19;;;15.36;100.00
11011;BME280;5558;42.702;23.178;2023-06-04T02:11:56;93868.09;;;15.35;100.00
11011;BME280;5558;42.702;23.178;2023-06-04T02:14:23;93872.28;;;15.41;100.00
11011;BME280;5558;42.702;23.178;2023-06-04T02:16:50;93812.53;;;14.82;100.00
11011;BME280;5558;42.702;23.178;2023-06-04T02:19:19;93882.66;;;15.01;100.00
11011;BME280;5558;42.702;23.178;2023-06-04T02:21:46;93901.84;;;14.79;100.00
11011;BME280;5558;42.702;23.178;2023-06-04T02:24:12;93919.34;;;14.61;100.00
11011;BME280;5558;42.702;23.178;2023-06-04T02:26:41;93933.38;;;14.43;100.00
11011;BME280;5558;42.702;23.178;2023-06-04T02:29:08;93956.03;;;14.41;100.00
11011;BME280;5558;42.702;23.178;2023-06-04T02:31:34;93974.50;;;14.32;100.00
11011;BME280;5558;42.702;23.178;2023-06-04T02:34:01;93960.56;;;14.07;100.00
11011;BME280;5558;42.702;23.178;2023-06-04T02:36:29;94007.16;;;14.43;100.00
11011;BME280;5558;42.702;23.178;2023-06-04T02:38:56;93996.69;;;14.51;100.00
11011;BME280;5558;42.702;23.178;2023-06-04T02:41:23;93987.78;;;14.66;100.00
11011;BME280;5558;42.702;23.178;2023-06-04T02:43:51;93983.31;;;14.85;100.00
11011;BME280;5558;42.702;23.178;2023-06-04T02:46:18;93971.78;;;14.95;100.00
11011;BME280;5558;42.702;23.178;2023-06-04T02:48:45;93959.91;;;15.06;100.00
11011;BME280;5558;42.702;23.178;2023-06-04T02:51:11;93958.84;;;14.83;100.00
11011;BME280;5558;42.702;23.178;2023-06-04T02:53:38;93953.47;;;14.88;100.00
11011;BME280;5558;42.702;23.178;2023-06-04T02:56:06;93958.03;;;15.06;100.00
11011;BME280;5558;42.702;23.178;2023-06-04T02:58:33;93950.28;;;15.10;100.00
11011;BME280;5558;42.702;23.178;2023-06-04T03:01:05;93945.28;;;15.03;100.00
11011;BME280;5558;42.702;23.178;2023-06-04T03:03:33;93961.34;;;14.75;100.00
11011;BME280;5558;42.702;23.178;2023-06-04T03:05:59;93983.84;;;14.58;100.00
11011;BME280;5558;42.702;23.178;2023-06-04T03:08:27;93998.41;;;14.42;100.00
11011;BME280;5558;42.702;23.178;2023-06-04T03:10:54;94013.41;;;14.23;100.00
11011;BME280;5558;42.702;23.178;2023-06-04T03:13:21;94013.31;;;14.00;100.00
11011;BME280;5558;42.702;23.178;2023-06-04T03:15:47;94033.81;;;13.99;100.00
11011;BME280;5558;42.702;23.178;2023-06-04T03:18:16;94046.63;;;13.92;100.00
11011;BME280;5558;42.702;23.178;2023-06-04T03:20:42;94033.72;;;13.71;100.00
11011;BME280;5558;42.702;23.178;2023-06-04T03:23:09;94063.66;;;13.91;100.00
11011;BME280;5558;42.702;23.178;2023-06-04T03:25:36;94067.63;;;13.94;100.00
11011;BME280;5558;42.702;23.178;2023-06-04T03:28:03;94079.59;;;13.96;100.00
11011;BME280;5558;42.702;23.178;2023-06-04T03:30:30;94079.59;;;13.96;100.00
11011;BME280;5558;42.702;23.178;2023-06-04T03:32:56;94087.31;;;13.98;100.00
11011;BME280;5558;42.702;23.178;2023-06-04T03:35:25;94092.34;;;13.99;100.00
11011;BME280;5558;42.702;23.178;2023-06-04T03:37:51;94097.69;;;13.99;100.00
11011;BME280;5558;42.702;23.178;2023-06-04T03:40:18;94106.72;;;14.03;100.00
11011;BME280;5558;42.702;23.178;2023-06-04T03:42:45;94110.69;;;14.06;100.00
11011;BME280;5558;42.702;23.178;2023-06-04T03:45:11;94119.69;;;14.15;100.00
11011;BME280;5558;42.702;23.178;2023-06-04T03:47:39;94114.38;;;14.15;100.00
11011;BME280;5558;42.702;23.178;2023-06-04T03:50:06;94109.56;;;14.17;100.00
11011;BME280;5558;42.702;23.178;2023-06-04T03:52:35;94118.88;;;14.19;100.00
11011;BME280;5558;42.702;23.178;2023-06-04T03:55:02;94123.91;;;14.21;100.00
11011;BME280;5558;42.702;23.178;2023-06-04T03:57:28;94105.06;;;14.12;100.00
11011;BME280;5558;42.702;23.178;2023-06-04T03:59:56;94120.72;;;14.29;100.00
11011;BME280;5558;42.702;23.178;2023-06-04T04:02:23;94116.72;;;14.26;100.00
11011;BME280;5558;42.702;23.178;2023-06-04T04:04:50;94114.03;;;14.31;100.00
11011;BME280;5558;42.702;23.178;2023-06-04T04:07:19;94112.38;;;14.40;100.00
11011;BME280;5558;42.702;23.178;2023-06-04T04:09:48;94113.16;;;14.41;100.00
11011;BME280;5558;42.702;23.178;2023-06-04T04:12:14;94115.34;;;14.39;100.00
11011;BME280;5558;42.702;23.178;2023-06-04T04:14:41;94112.03;;;14.52;100.00
11011;BME280;5558;42.702;23.178;2023-06-04T04:17:08;94109.63;;;14.55;100.00
11011;BME280;5558;42.702;23.178;2023-06-04T04:19:35;94106.72;;;14.52;100.00
11011;BME280;5558;42.702;23.178;2023-06-04T04:22:03;94095.81;;;14.48;100.00
11011;BME280;5558;42.702;23.178;2023-06-04T04:24:30;94102.19;;;14.52;100.00
11011;BME280;5558;42.702;23.178;2023-06-04T04:27:01;94101.38;;;14.52;100.00
11011;BME280;5558;42.702;23.178;2023-06-04T04:29:29;94098.44;;;14.53;100.00
11011;BME280;5558;42.702;23.178;2023-06-04T04:31:58;94094.41;;;14.61;100.00
11011;BME280;5558;42.702;23.178;2023-06-04T04:34:26;94095.97;;;14.62;100.00
11011;BME280;5558;42.702;23.178;2023-06-04T04:36:53;94102.94;;;14.58;100.00
11011;BME280;5558;42.702;23.178;2023-06-04T04:39:23;94092.91;;;14.79;100.00
11011;BME280;5558;42.702;23.178;2023-06-04T04:41:50;94091.66;;;14.71;100.00
11011;BME280;5558;42.702;23.178;2023-06-04T04:44:18;94086.94;;;14.92;100.00
11011;BME280;5558;42.702;23.178;2023-06-04T04:46:45;94090.88;;;14.99;100.00
11011;BME280;5558;42.702;23.178;2023-06-04T04:49:13;94077.50;;;15.04;100.00
11011;BME280;5558;42.702;23.178;2023-06-04T04:51:40;94069.41;;;15.14;100.00
11011;BME280;5558;42.702;23.178;2023-06-04T04:54:07;94060.97;;;15.02;100.00
11011;BME280;5558;42.702;23.178;2023-06-04T04:56:34;94070.81;;;15.07;100.00
11011;BME280;5558;42.702;23.178;2023-06-04T04:59:02;94061.88;;;15.21;100.00
11011;BME280;5558;42.702;23.178;2023-06-04T05:01:30;94065.22;;;15.32;100.00
11011;BME280;5558;42.702;23.178;2023-06-04T05:03:57;94065.16;;;15.37;100.00
11011;BME280;5558;42.702;23.178;2023-06-04T05:06:24;94061.53;;;15.28;100.00
11011;BME280;5558;42.702;23.178;2023-06-04T05:08:50;94062.59;;;15.55;100.00
11011;BME280;5558;42.702;23.178;2023-06-04T05:11:17;94053.72;;;15.60;100.00
11011;BME280;5558;42.702;23.178;2023-06-04T05:13:45;94041.28;;;15.74;100.00
11011;BME280;5558;42.702;23.178;2023-06-04T05:16:11;94036.38;;;15.81;100.00
11011;BME280;5558;42.702;23.178;2023-06-04T05:18:40;94026.94;;;15.88;100.00
11011;BME280;5558;42.702;23.178;2023-06-04T05:21:07;94030.44;;;15.65;100.00
11011;BME280;5558;42.702;23.178;2023-06-04T05:23:33;94021.19;;;15.58;100.00
11011;BME280;5558;42.702;23.178;2023-06-04T05:26:02;94049.88;;;15.71;100.00
11011;BME280;5558;42.702;23.178;2023-06-04T05:28:29;94040.75;;;15.72;100.00
11011;BME280;5558;42.702;23.178;2023-06-04T05:30:58;94032.41;;;15.31;100.00
11011;BME280;5558;42.702;23.178;2023-06-04T05:33:25;94064.84;;;15.43;100.00
11011;BME280;5558;42.702;23.178;2023-06-04T05:35:53;94065.69;;;15.39;100.00
11011;BME280;5558;42.702;23.178;2023-06-04T05:38:23;94075.47;;;15.48;100.00
11011;BME280;5558;42.702;23.178;2023-06-04T05:40:53;94066.66;;;15.48;100.00
11011;BME280;5558;42.702;23.178;2023-06-04T05:43:20;94070.66;;;15.50;100.00
11011;BME280;5558;42.702;23.178;2023-06-04T05:45:47;94079.72;;;15.49;100.00
11011;BME280;5558;42.702;23.178;2023-06-04T05:48:14;94054.78;;;15.35;100.00
11011;BME280;5558;42.702;23.178;2023-06-04T05:50:41;94047.00;;;15.39;100.00
11011;BME280;5558;42.702;23.178;2023-06-04T05:53:09;94044.16;;;15.30;100.00
11011;BME280;5558;42.702;23.178;2023-06-04T05:55:36;94063.75;;;15.44;100.00
11011;BME280;5558;42.702;23.178;2023-06-04T05:58:03;94057.81;;;15.52;100.00
11011;BME280;5558;42.702;23.178;2023-06-04T06:00:29;94060.22;;;15.54;100.00
11011;BME280;5558;42.702;23.178;2023-06-04T06:02:56;94062.75;;;15.64;100.00
11011;BME280;5558;42.702;23.178;2023-06-04T06:05:23;94061.72;;;15.60;100.00
11011;BME280;5558;42.702;23.178;2023-06-04T06:07:49;94066.94;;;15.70;100.00
11011;BME280;5558;42.702;23.178;2023-06-04T06:10:17;94044.47;;;15.76;100.00
11011;BME280;5558;42.702;23.178;2023-06-04T06:12:44;94048.72;;;15.96;100.00
11011;BME280;5558;42.702;23.178;2023-06-04T06:15:11;94035.00;;;16.02;100.00
11011;BME280;5558;42.702;23.178;2023-06-04T06:17:38;94027.75;;;16.08;100.00
11011;BME280;5558;42.702;23.178;2023-06-04T06:20:06;94031.00;;;16.05;100.00
11011;BME280;5558;42.702;23.178;2023-06-04T06:22:33;94034.94;;;16.26;100.00
11011;BME280;5558;42.702;23.178;2023-06-04T06:25:00;94031.59;;;16.34;100.00
11011;BME280;5558;42.702;23.178;2023-06-04T06:27:29;94025.88;;;16.27;100.00
11011;BME280;5558;42.702;23.178;2023-06-04T06:29:55;94024.47;;;16.29;100.00
11011;BME280;5558;42.702;23.178;2023-06-04T06:32:22;94026.41;;;16.42;100.00
11011;BME280;5558;42.702;23.178;2023-06-04T06:34:49;94013.44;;;16.17;100.00
11011;BME280;5558;42.702;23.178;2023-06-04T06:37:16;94028.53;;;16.27;100.00
11011;BME280;5558;42.702;23.178;2023-06-04T06:39:42;94021.28;;;16.27;100.00
11011;BME280;5558;42.702;23.178;2023-06-04T06:42:09;94018.47;;;16.19;100.00
11011;BME280;5558;42.702;23.178;2023-06-04T06:44:37;94018.19;;;16.20;100.00
11011;BME280;5558;42.702;23.178;2023-06-04T06:47:04;94020.44;;;16.32;100.00
11011;BME280;5558;42.702;23.178;2023-06-04T06:49:31;94016.81;;;16.41;100.00
11011;BME280;5558;42.702;23.178;2023-06-04T06:51:57;94018.69;;;16.59;100.00
11011;BME280;5558;42.702;23.178;2023-06-04T06:54:24;94008.50;;;16.61;100.00
11011;BME280;5558;42.702;23.178;2023-06-04T06:56:51;94010.91;;;16.76;100.00
11011;BME280;5558;42.702;23.178;2023-06-04T06:59:17;94021.44;;;17.00;100.00
11011;BME280;5558;42.702;23.178;2023-06-04T07:01:46;94019.31;;;17.16;100.00
11011;BME280;5558;42.702;23.178;2023-06-04T07:04:13;94017.03;;;17.36;100.00
11011;BME280;5558;42.702;23.178;2023-06-04T07:06:40;94015.16;;;17.23;100.00
11011;BME280;5558;42.702;23.178;2023-06-04T07:09:06;94015.72;;;17.06;100.00
11011;BME280;5558;42.702;23.178;2023-06-04T07:11:33;94017.81;;;17.10;100.00
11011;BME280;5558;42.702;23.178;2023-06-04T07:14:00;94009.06;;;16.90;100.00
11011;BME280;5558;42.702;23.178;2023-06-04T07:16:27;94020.78;;;16.94;100.00
11011;BME280;5558;42.702;23.178;2023-06-04T07:18:56;94027.91;;;16.99;100.00
11011;BME280;5558;42.702;23.178;2023-06-04T07:21:23;94024.81;;;16.92;100.00
11011;BME280;5558;42.702;23.178;2023-06-04T07:23:50;94034.69;;;16.78;100.00
11011;BME280;5558;42.702;23.178;2023-06-04T07:26:17;94020.31;;;16.74;100.00
11011;BME280;5558;42.702;23.178;2023-06-04T07:28:44;94039.84;;;16.88;100.00
11011;BME280;5558;42.702;23.178;2023-06-04T07:31:15;94039.38;;;16.86;100.00
11011;BME280;5558;42.702;23.178;2023-06-04T07:33:41;94037.81;;;16.98;100.00
11011;BME280;5558;42.702;23.178;2023-06-04T07:36:12;94041.81;;;17.15;100.00
11011;BME280;5558;42.702;23.178;2023-06-04T07:38:38;94041.03;;;17.28;100.00
11011;BME280;5558;42.702;23.178;2023-06-04T07:41:05;94046.03;;;17.48;100.00
11011;BME280;5558;42.702;23.178;2023-06-04T07:43:33;94027.38;;;17.56;100.00
11011;BME280;5558;42.702;23.178;2023-06-04T07:46:00;94053.72;;;17.36;100.00
11011;BME280;5558;42.702;23.178;2023-06-04T07:48:27;94053.63;;;17.41;100.00
11011;BME280;5558;42.702;23.178;2023-06-04T07:50:56;94045.28;;;17.29;100.00
11011;BME280;5558;42.702;23.178;2023-06-04T07:53:24;94054.22;;;17.38;100.00
11011;BME280;5558;42.702;23.178;2023-06-04T07:55:52;94053.91;;;17.39;100.00
11011;BME280;5558;42.702;23.178;2023-06-04T07:58:19;94050.88;;;17.46;100.00
11011;BME280;5558;42.702;23.178;2023-06-04T08:00:45;94055.16;;;17.74;100.00
11011;BME280;5558;42.702;23.178;2023-06-04T08:03:12;94051.13;;;18.12;100.00
11011;BME280;5558;42.702;23.178;2023-06-04T08:05:40;94058.75;;;18.18;100.00
11011;BME280;5558;42.702;23.178;2023-06-04T08:08:08;94056.72;;;18.51;100.00
11011;BME280;5558;42.702;23.178;2023-06-04T08:10:36;94057.63;;;18.47;100.00
11011;BME280;5558;42.702;23.178;2023-06-04T08:13:02;94057.47;;;18.65;100.00
11011;BME280;5558;42.702;23.178;2023-06-04T08:15:29;94056.09;;;18.76;100.00
11011;BME280;5558;42.702;23.178;2023-06-04T08:17:56;94056.34;;;18.88;100.00
11011;BME280;5558;42.702;23.178;2023-06-04T08:20:23;94063.16;;;18.72;100.00
11011;BME280;5558;42.702;23.178;2023-06-04T08:22:49;94063.34;;;18.76;100.00
11011;BME280;5558;42.702;23.178;2023-06-04T08:25:16;94063.03;;;18.77;100.00
11011;BME280;5558;42.702;23.178;2023-06-04T08:27:45;94064.19;;;19.29;100.00
11011;BME280;5558;42.702;23.178;2023-06-04T08:30:12;94057.25;;;19.67;100.00
11011;BME280;5558;42.702;23.178;2023-06-04T08:32:38;94063.72;;;20.05;100.00
11011;BME280;5558;42.702;23.178;2023-06-04T08:35:07;94060.63;;;20.37;100.00
11011;BME280;5558;42.702;23.178;2023-06-04T08:37:35;94058.59;;;20.69;100.00
11011;BME280;5558;42.702;23.178;2023-06-04T08:40:02;94062.34;;;20.16;100.00
11011;BME280;5558;42.702;23.178;2023-06-04T08:42:35;94072.53;;;19.89;100.00
11011;BME280;5558;42.702;23.178;2023-06-04T08:45:08;94069.53;;;19.51;100.00
11011;BME280;5558;42.702;23.178;2023-06-04T08:47:37;94069.94;;;19.36;100.00
11011;BME280;5558;42.702;23.178;2023-06-04T08:50:06;94072.88;;;19.04;100.00
11011;BME280;5558;42.702;23.178;2023-06-04T08:52:37;94067.06;;;18.66;100.00
11011;BME280;5558;42.702;23.178;2023-06-04T08:55:05;94071.09;;;18.77;100.00
11011;BME280;5558;42.702;23.178;2023-06-04T08:57:32;94068.13;;;19.01;100.00
11011;BME280;5558;42.702;23.178;2023-06-04T08:59:58;94068.63;;;19.33;100.00
11011;BME280;5558;42.702;23.178;2023-06-04T09:02:28;94065.69;;;19.83;100.00
11011;BME280;5558;42.702;23.178;2023-06-04T09:04:56;94017.63;;;19.73;100.00
11011;BME280;5558;42.702;23.178;2023-06-04T09:07:24;94069.16;;;19.75;100.00
11011;BME280;5558;42.702;23.178;2023-06-04T09:09:52;94068.59;;;19.95;100.00
11011;BME280;5558;42.702;23.178;2023-06-04T09:12:23;94069.25;;;20.00;100.00
11011;BME280;5558;42.702;23.178;2023-06-04T09:14:50;94077.91;;;19.89;100.00
11011;BME280;5558;42.702;23.178;2023-06-04T09:17:21;94064.00;;;19.95;100.00
11011;BME280;5558;42.702;23.178;2023-06-04T09:19:49;94074.41;;;20.36;100.00
11011;BME280;5558;42.702;23.178;2023-06-04T09:22:18;94064.59;;;20.48;100.00
11011;BME280;5558;42.702;23.178;2023-06-04T09:24:46;94073.69;;;20.13;100.00
11011;BME280;5558;42.702;23.178;2023-06-04T09:27:16;94069.22;;;19.92;100.00
11011;BME280;5558;42.702;23.178;2023-06-04T09:29:49;94060.50;;;19.86;100.00
11011;BME280;5558;42.702;23.178;2023-06-04T09:32:21;94074.97;;;19.68;100.00
11011;BME280;5558;42.702;23.178;2023-06-04T09:34:49;94053.66;;;19.72;100.00
11011;BME280;5558;42.702;23.178;2023-06-04T09:37:18;94057.63;;;19.43;100.00
11011;BME280;5558;42.702;23.178;2023-06-04T09:39:52;94072.31;;;19.37;100.00
11011;BME280;5558;42.702;23.178;2023-06-04T09:42:20;94069.44;;;19.65;100.00
11011;BME280;5558;42.702;23.178;2023-06-04T09:44:47;94068.59;;;19.56;100.00
11011;BME280;5558;42.702;23.178;2023-06-04T09:47:14;94073.56;;;19.40;100.00
11011;BME280;5558;42.702;23.178;2023-06-04T09:49:41;94068.47;;;19.30;100.00
11011;BME280;5558;42.702;23.178;2023-06-04T09:52:09;94060.69;;;19.51;100.00
11011;BME280;5558;42.702;23.178;2023-06-04T09:54:36;94059.31;;;19.62;100.00
11011;BME280;5558;42.702;23.178;2023-06-04T09:57:04;94057.91;;;19.73;100.00
11011;BME280;5558;42.702;23.178;2023-06-04T09:59:35;94059.63;;;19.60;100.00
11011;BME280;5558;42.702;23.178;2023-06-04T10:02:09;94063.81;;;19.83;100.00
11011;BME280;5558;42.702;23.178;2023-06-04T10:04:40;94061.19;;;20.00;100.00
11011;BME280;5558;42.702;23.178;2023-06-04T10:07:09;94054.69;;;20.10;100.00
11011;BME280;5558;42.702;23.178;2023-06-04T10:09:38;94058.16;;;20.02;100.00
11011;BME280;5558;42.702;23.178;2023-06-04T10:12:11;94059.50;;;20.21;100.00
11011;BME280;5558;42.702;23.178;2023-06-04T10:14:42;94067.78;;;20.68;100.00
11011;BME280;5558;42.702;23.178;2023-06-04T10:17:12;94061.91;;;20.74;100.00
11011;BME280;5558;42.702;23.178;2023-06-04T10:19:43;94054.16;;;20.55;100.00
11011;BME280;5558;42.702;23.178;2023-06-04T10:22:11;94053.19;;;20.60;100.00
11011;BME280;5558;42.702;23.178;2023-06-04T10:24:38;94057.66;;;20.56;100.00
11011;BME280;5558;42.702;23.178;2023-06-04T10:27:06;94062.69;;;20.92;100.00
11011;BME280;5558;42.702;23.178;2023-06-04T10:29:36;94053.81;;;20.23;100.00
11011;BME280;5558;42.702;23.178;2023-06-04T10:32:03;94044.81;;;20.36;100.00
11011;BME280;5558;42.702;23.178;2023-06-04T10:34:30;94044.66;;;20.32;100.00
11011;BME280;5558;42.702;23.178;2023-06-04T10:36:57;94051.78;;;20.71;100.00
11011;BME280;5558;42.702;23.178;2023-06-04T10:39:29;94049.59;;;20.99;100.00
11011;BME280;5558;42.702;23.178;2023-06-04T10:41:59;94049.41;;;20.87;100.00
11011;BME280;5558;42.702;23.178;2023-06-04T10:44:25;94055.28;;;20.54;100.00
11011;BME280;5558;42.702;23.178;2023-06-04T10:46:52;94053.66;;;20.45;100.00
11011;BME280;5558;42.702;23.178;2023-06-04T10:49:26;94058.75;;;20.29;100.00
11011;BME280;5558;42.702;23.178;2023-06-04T10:51:53;94060.13;;;20.18;100.00
11011;BME280;5558;42.702;23.178;2023-06-04T10:54:23;94056.97;;;20.33;100.00
11011;BME280;5558;42.702;23.178;2023-06-04T10:56:52;94052.28;;;20.56;100.00
11011;BME280;5558;42.702;23.178;2023-06-04T10:59:19;94058.97;;;20.02;100.00
11011;BME280;5558;42.702;23.178;2023-06-04T11:01:46;94056.91;;;20.08;100.00
11011;BME280;5558;42.702;23.178;2023-06-04T11:04:20;94037.50;;;20.19;100.00
11011;BME280;5558;42.702;23.178;2023-06-04T11:06:48;94053.50;;;20.16;100.00
11011;BME280;5558;42.702;23.178;2023-06-04T11:09:14;94055.16;;;20.03;100.00
11011;BME280;5558;42.702;23.178;2023-06-04T11:11:44;94056.91;;;20.08;100.00
11011;BME280;5558;42.702;23.178;2023-06-04T11:14:12;94060.59;;;19.73;100.00
11011;BME280;5558;42.702;23.178;2023-06-04T11:16:39;94057.06;;;19.55;100.00
11011;BME280;5558;42.702;23.178;2023-06-04T11:19:07;94052.44;;;19.47;100.00
11011;BME280;5558;42.702;23.178;2023-06-04T11:21:34;94050.41;;;19.53;100.00
11011;BME280;5558;42.702;23.178;2023-06-04T11:24:04;94049.53;;;19.74;100.00
11011;BME280;5558;42.702;23.178;2023-06-04T11:26:31;94049.88;;;20.37;100.00
11011;BME280;5558;42.702;23.178;2023-06-04T11:28:59;94051.00;;;20.71;100.00
11011;BME280;5558;42.702;23.178;2023-06-04T11:31:27;94045.44;;;21.10;100.00
11011;BME280;5558;42.702;23.178;2023-06-04T11:33:54;94041.63;;;21.11;100.00
11011;BME280;5558;42.702;23.178;2023-06-04T11:36:25;94034.34;;;20.94;100.00
11011;BME280;5558;42.702;23.178;2023-06-04T11:38:56;94036.56;;;21.01;100.00
11011;BME280;5558;42.702;23.178;2023-06-04T11:41:23;94035.47;;;20.85;100.00
11011;BME280;5558;42.702;23.178;2023-06-04T11:43:50;94037.38;;;20.58;100.00
11011;BME280;5558;42.702;23.178;2023-06-04T11:46:17;94044.53;;;20.72;100.00
11011;BME280;5558;42.702;23.178;2023-06-04T11:48:45;94037.84;;;20.69;100.00
11011;BME280;5558;42.702;23.178;2023-06-04T11:51:12;94041.50;;;20.56;100.00
11011;BME280;5558;42.702;23.178;2023-06-04T11:53:40;94037.53;;;20.45;100.00
11011;BME280;5558;42.702;23.178;2023-06-04T11:56:07;94042.16;;;20.62;100.00
11011;BME280;5558;42.702;23.178;2023-06-04T11:58:34;94033.28;;;20.44;100.00
11011;BME280;5558;42.702;23.178;2023-06-04T12:01:01;94036.28;;;20.42;100.00
11011;BME280;5558;42.702;23.178;2023-06-04T12:03:35;94040.69;;;20.21;100.00
11011;BME280;5558;42.702;23.178;2023-06-04T12:06:12;94028.63;;;20.10;100.00
11011;BME280;5558;42.702;23.178;2023-06-04T12:08:46;94040.06;;;20.33;100.00
11011;BME280;5558;42.702;23.178;2023-06-04T12:11:26;94037.13;;;19.95;100.00
11011;BME280;5558;42.702;23.178;2023-06-04T12:13:54;94049.88;;;19.81;100.00
11011;BME280;5558;42.702;23.178;2023-06-04T12:16:21;94043.22;;;19.70;100.00
11011;BME280;5558;42.702;23.178;2023-06-04T12:18:48;94022.28;;;19.50;100.00
11011;BME280;5558;42.702;23.178;2023-06-04T12:21:24;94040.94;;;19.55;100.00
11011;BME280;5558;42.702;23.178;2023-06-04T12:24:06;94039.41;;;19.63;100.00
11011;BME280;5558;42.702;23.178;2023-06-04T12:26:33;94049.59;;;19.91;100.00
11011;BME280;5558;42.702;23.178;2023-06-04T12:29:08;94044.97;;;19.75;100.00
11011;BME280;5558;42.702;23.178;2023-06-04T12:31:36;94047.97;;;19.73;100.00
11011;BME280;5558;42.702;23.178;2023-06-04T12:34:03;94046.75;;;19.88;100.00
11011;BME280;5558;42.702;23.178;2023-06-04T12:36:32;94054.00;;;19.87;100.00
11011;BME280;5558;42.702;23.178;2023-06-04T12:39:01;94046.69;;;20.18;100.00
11011;BME280;5558;42.702;23.178;2023-06-04T12:41:28;94042.16;;;20.44;100.00
11011;BME280;5558;42.702;23.178;2023-06-04T12:43:56;94012.72;;;20.22;100.00
11011;BME280;5558;42.702;23.178;2023-06-04T12:46:23;94044.97;;;20.22;100.00
11011;BME280;5558;42.702;23.178;2023-06-04T12:48:51;94045.13;;;20.26;100.00
11011;BME280;5558;42.702;23.178;2023-06-04T12:51:18;94035.31;;;20.30;100.00
11011;BME280;5558;42.702;23.178;2023-06-04T12:53:47;94051.94;;;20.32;100.00